Time;durP1;ratioP1;P1;durP2;ratioP2;P2;SDS_P1;SDS_P2;PMS_P1;PMS_P2;Temp;Humidity;BMP_temperature;BMP_pressure;BME280_temperature;BME280_humidity;BME280_pressure;Samples;Min_cycle;Max_cycle;Signal;HPM_P1;HPM_P2
2021/07/07 00:00:13;;;;;;;2.27;1.40;;;17.60;99.90;;;;;;5032254;28;20828;-51
2021/07/07 00:02:40;;;;;;;1.70;1.50;;;17.60;99.90;;;;;;5032098;28;20880;-51
2021/07/07 00:05:09;;;;;;;1.50;1.40;;;17.60;99.90;;;;;;5032717;28;20484;-51
2021/07/07 00:07:36;;;;;;;2.90;1.40;;;17.60;99.90;;;;;;5032137;28;20526;-50
2021/07/07 00:10:07;;;;;;;2.20;1.90;;;17.50;99.90;;;;;;5032503;28;20453;-51
2021/07/07 00:12:34;;;;;;;1.60;1.50;;;17.30;99.90;;;;;;5031679;28;20950;-50
2021/07/07 00:15:01;;;;;;;2.83;1.70;;;17.30;99.90;;;;;;5031735;28;20460;-51
2021/07/07 00:17:28;;;;;;;2.50;2.30;;;17.40;99.90;;;;;;5032506;28;20847;-51
2021/07/07 00:19:55;;;;;;;2.53;2.10;;;17.40;99.90;;;;;;5032255;28;20449;-51
2021/07/07 00:22:22;;;;;;;2.23;2.10;;;17.40;99.90;;;;;;5031627;28;20460;-52
2021/07/07 00:24:49;;;;;;;2.07;1.87;;;17.40;99.90;;;;;;5032108;28;20484;-51
2021/07/07 00:27:18;;;;;;;3.60;2.30;;;17.30;99.90;;;;;;5032569;28;20551;-51
2021/07/07 00:29:45;;;;;;;2.40;1.60;;;17.20;99.90;;;;;;5032307;28;20500;-51
2021/07/07 00:32:14;;;;;;;1.30;1.20;;;17.20;99.90;;;;;;5031602;28;20453;-51
2021/07/07 00:34:41;;;;;;;2.20;1.50;;;17.20;99.90;;;;;;5031992;28;20456;-51
2021/07/07 00:37:08;;;;;;;1.30;1.20;;;17.30;99.90;;;;;;5032434;28;20889;-51
2021/07/07 00:39:35;;;;;;;1.70;1.60;;;17.30;99.90;;;;;;5032204;28;20455;-52
2021/07/07 00:42:02;;;;;;;1.40;1.30;;;17.40;99.90;;;;;;5031978;28;20938;-51
2021/07/07 00:44:30;;;;;;;1.20;1.10;;;17.30;99.90;;;;;;5031603;28;20875;-53
2021/07/07 00:46:57;;;;;;;1.53;1.13;;;17.30;99.90;;;;;;5031544;28;20477;-51
2021/07/07 00:49:24;;;;;;;2.70;0.90;;;17.30;99.90;;;;;;5031599;28;20997;-52
2021/07/07 00:51:54;;;;;;;1.50;1.40;;;17.30;99.90;;;;;;5031500;28;20448;-52
2021/07/07 00:54:22;;;;;;;1.57;1.33;;;17.30;99.90;;;;;;5024881;28;20441;-52
2021/07/07 00:56:50;;;;;;;1.77;1.30;;;17.20;99.90;;;;;;5031253;28;21017;-52
2021/07/07 00:59:20;;;;;;;1.63;1.13;;;17.30;99.90;;;;;;5031195;28;20461;-51
2021/07/07 01:01:52;;;;;;;1.07;1.07;;;17.20;99.90;;;;;;5013943;28;20496;-51
2021/07/07 01:04:19;;;;;;;1.30;0.90;;;17.30;99.90;;;;;;5031674;28;20512;-50
2021/07/07 01:06:46;;;;;;;1.20;0.90;;;17.20;99.90;;;;;;5031079;28;20472;-51
2021/07/07 01:09:13;;;;;;;0.97;0.97;;;17.20;99.90;;;;;;5031469;28;20950;-50
2021/07/07 01:11:40;;;;;;;1.33;0.90;;;17.20;99.90;;;;;;5031652;28;20453;-52
2021/07/07 01:14:07;;;;;;;1.40;0.80;;;17.30;99.90;;;;;;5030577;28;20865;-51
2021/07/07 01:16:34;;;;;;;1.43;1.00;;;17.30;99.90;;;;;;5030358;28;20503;-50
2021/07/07 01:19:03;;;;;;;3.43;1.17;;;17.30;99.90;;;;;;5031911;28;20520;-51
2021/07/07 01:21:30;;;;;;;0.80;0.80;;;17.30;99.90;;;;;;5031438;28;20449;-53
2021/07/07 01:23:58;;;;;;;0.93;0.93;;;17.40;99.90;;;;;;5029984;28;20480;-50
2021/07/07 01:26:25;;;;;;;1.00;0.90;;;17.40;99.90;;;;;;5031628;28;20456;-51
2021/07/07 01:28:52;;;;;;;0.93;0.93;;;17.30;99.90;;;;;;5031266;28;20452;-51
2021/07/07 01:31:19;;;;;;;1.10;1.00;;;17.30;99.90;;;;;;5031012;28;20460;-51
2021/07/07 01:33:47;;;;;;;1.07;1.00;;;17.30;99.90;;;;;;5030664;28;20502;-51
2021/07/07 01:36:14;;;;;;;1.00;1.00;;;17.40;99.90;;;;;;5031343;28;20448;-51
2021/07/07 01:38:41;;;;;;;2.30;1.00;;;17.40;99.90;;;;;;5031170;28;20453;-50
2021/07/07 01:41:09;;;;;;;1.13;1.03;;;17.40;99.90;;;;;;5030833;28;20452;-51
2021/07/07 01:43:36;;;;;;;1.77;1.10;;;17.50;99.90;;;;;;5030972;28;20946;-51
2021/07/07 01:46:03;;;;;;;1.27;1.17;;;17.50;99.90;;;;;;5031560;28;20448;-51
2021/07/07 01:48:30;;;;;;;2.10;1.13;;;17.40;99.90;;;;;;5030810;28;20468;-51
2021/07/07 01:50:57;;;;;;;1.20;1.10;;;17.40;99.90;;;;;;5031372;28;20449;-51
2021/07/07 01:53:24;;;;;;;1.40;1.30;;;17.30;99.90;;;;;;5030403;28;21034;-50
2021/07/07 01:55:55;;;;;;;1.53;1.40;;;17.40;99.90;;;;;;5030239;28;20495;-50
2021/07/07 01:58:23;;;;;;;1.33;1.23;;;17.50;99.90;;;;;;5027748;28;20496;-51
2021/07/07 02:00:50;;;;;;;1.70;1.60;;;17.60;99.90;;;;;;5031276;28;20504;-50
2021/07/07 02:03:17;;;;;;;1.73;1.60;;;17.50;99.90;;;;;;5030565;28;20457;-51
2021/07/07 02:05:44;;;;;;;1.80;1.70;;;17.40;99.90;;;;;;5030459;28;20484;-51
2021/07/07 02:08:12;;;;;;;2.30;2.10;;;17.50;99.90;;;;;;5030770;28;20547;-51
2021/07/07 02:10:40;;;;;;;1.93;1.83;;;17.40;99.90;;;;;;5030550;28;20950;-51
2021/07/07 02:13:08;;;;;;;2.03;1.90;;;17.50;99.90;;;;;;5030822;28;20449;-51
2021/07/07 02:15:37;;;;;;;3.30;2.23;;;17.50;99.90;;;;;;5030817;28;20514;-51
2021/07/07 02:18:05;;;;;;;3.97;2.27;;;17.50;99.90;;;;;;5030910;28;20473;-51
2021/07/07 02:20:35;;;;;;;2.80;2.10;;;17.50;99.90;;;;;;5030554;28;20991;-51
2021/07/07 02:23:02;;;;;;;2.33;2.20;;;17.60;99.90;;;;;;5018034;28;20502;-51
2021/07/07 02:25:32;;;;;;;1.93;1.70;;;17.60;99.90;;;;;;5030922;28;20559;-51
2021/07/07 02:28:00;;;;;;;2.10;1.50;;;17.60;99.90;;;;;;5030963;28;20476;-51
2021/07/07 02:30:29;;;;;;;1.60;1.50;;;17.70;99.90;;;;;;5031052;28;20864;-52
2021/07/07 02:32:58;;;;;;;5.27;1.77;;;17.60;99.90;;;;;;5030509;28;20486;-51
2021/07/07 02:35:27;;;;;;;2.07;1.73;;;17.60;99.90;;;;;;5032646;28;20440;-50
2021/07/07 02:37:56;;;;;;;2.40;2.20;;;17.60;99.90;;;;;;5034070;28;20468;-51
2021/07/07 02:40:26;;;;;;;2.50;2.20;;;17.60;99.90;;;;;;5033790;28;20499;-50
2021/07/07 02:42:53;;;;;;;2.10;2.00;;;17.60;99.90;;;;;;5034089;28;20856;-52
2021/07/07 02:45:21;;;;;;;2.30;2.10;;;17.50;99.90;;;;;;5034299;28;20472;-51
2021/07/07 02:47:48;;;;;;;2.50;2.30;;;17.60;99.90;;;;;;5034106;28;20519;-52
2021/07/07 02:50:19;;;;;;;3.77;2.10;;;17.60;99.90;;;;;;5034132;28;20976;-52
2021/07/07 02:52:48;;;;;;;2.17;1.97;;;17.50;99.90;;;;;;5033292;28;20452;-51
2021/07/07 02:55:16;;;;;;;2.30;1.80;;;17.40;99.90;;;;;;5033148;28;20514;-52
2021/07/07 02:57:58;;;;;;;2.43;1.93;;;17.40;99.90;;;;;;5033776;28;20912;-51
2021/07/07 03:00:30;;;;;;;2.43;2.00;;;17.50;99.90;;;;;;5034147;28;20445;-52
2021/07/07 03:02:59;;;;;;;3.07;1.97;;;17.40;99.90;;;;;;5033666;28;20449;-51
2021/07/07 03:05:28;;;;;;;2.17;2.07;;;17.40;99.90;;;;;;5034231;28;20546;-51
2021/07/07 03:07:55;;;;;;;2.27;1.80;;;17.40;99.90;;;;;;5033651;28;20559;-51
2021/07/07 03:10:22;;;;;;;2.40;2.20;;;17.50;99.90;;;;;;5033923;28;20457;-50
2021/07/07 03:12:49;;;;;;;2.20;2.00;;;17.50;99.90;;;;;;5032779;28;20495;-51
2021/07/07 03:15:17;;;;;;;1.60;1.50;;;17.40;99.90;;;;;;5033252;28;20444;-50
2021/07/07 03:17:44;;;;;;;2.30;2.17;;;17.50;99.90;;;;;;5033540;28;20469;-50
2021/07/07 03:20:12;;;;;;;2.10;1.90;;;17.60;99.90;;;;;;5033857;28;20460;-52
2021/07/07 03:22:41;;;;;;;2.67;1.90;;;17.70;99.90;;;;;;5033187;28;20460;-51
2021/07/07 03:25:10;;;;;;;2.60;2.00;;;17.70;99.90;;;;;;5033375;28;20903;-51
2021/07/07 03:27:37;;;;;;;2.57;2.37;;;17.80;99.90;;;;;;5032284;28;20468;-51
2021/07/07 03:30:05;;;;;;;4.13;2.40;;;17.70;99.90;;;;;;5033739;28;20494;-51
2021/07/07 03:32:32;;;;;;;2.03;1.80;;;17.50;99.90;;;;;;5033194;28;20453;-51
2021/07/07 03:34:59;;;;;;;2.17;1.97;;;17.60;99.90;;;;;;5033265;28;20495;-51
2021/07/07 03:37:26;;;;;;;3.17;2.40;;;17.70;99.90;;;;;;5032811;28;20542;-51
2021/07/07 03:39:55;;;;;;;2.30;2.10;;;17.70;99.90;;;;;;5033198;28;20464;-51
2021/07/07 03:42:22;;;;;;;2.13;1.87;;;17.70;99.90;;;;;;5017904;28;20865;-51
2021/07/07 03:44:49;;;;;;;2.40;2.20;;;17.70;99.90;;;;;;5032615;28;20572;-51
2021/07/07 03:47:16;;;;;;;2.00;1.90;;;17.80;99.90;;;;;;5031722;28;20480;-51
2021/07/07 03:49:43;;;;;;;2.33;2.13;;;17.80;99.90;;;;;;5033145;28;20514;-50
2021/07/07 03:52:11;;;;;;;3.73;2.70;;;17.70;99.90;;;;;;5032216;28;21042;-51
2021/07/07 03:54:38;;;;;;;4.23;3.00;;;17.70;99.90;;;;;;5024265;28;20451;-52
2021/07/07 03:57:07;;;;;;;3.63;3.07;;;17.70;99.90;;;;;;5032643;28;20499;-52
2021/07/07 03:59:34;;;;;;;3.20;2.80;;;17.60;99.90;;;;;;5052417;22;20986;-52
2021/07/07 04:02:01;;;;;;;3.00;2.80;;;17.60;99.90;;;;;;5031873;28;20452;-52
2021/07/07 04:04:28;;;;;;;3.07;2.33;;;17.60;99.90;;;;;;5032106;28;20453;-52
2021/07/07 04:06:59;;;;;;;2.53;2.33;;;17.60;99.90;;;;;;5032661;28;20476;-52
2021/07/07 04:09:28;;;;;;;2.80;2.60;;;17.50;99.90;;;;;;5032417;28;20465;-53
2021/07/07 04:11:56;;;;;;;3.60;3.30;;;17.40;99.90;;;;;;5032201;28;20456;-52
2021/07/07 04:14:25;;;;;;;2.63;2.43;;;17.40;99.90;;;;;;5032164;28;20448;-52
2021/07/07 04:16:57;;;;;;;3.20;2.90;;;17.30;99.90;;;;;;5031875;28;21022;-52
2021/07/07 04:19:25;;;;;;;3.57;2.33;;;17.40;99.90;;;;;;5031306;28;20476;-53
2021/07/07 04:21:55;;;;;;;3.20;2.90;;;17.40;99.90;;;;;;5031388;28;20539;-52
2021/07/07 04:24:23;;;;;;;2.70;2.50;;;17.40;99.90;;;;;;5031668;28;20893;-52
2021/07/07 04:26:53;;;;;;;3.00;2.70;;;17.30;99.90;;;;;;5031953;28;20484;-52
2021/07/07 04:29:20;;;;;;;2.53;2.37;;;17.30;99.90;;;;;;5029576;28;20522;-52
2021/07/07 04:31:56;;;;;;;2.90;2.70;;;17.30;99.90;;;;;;5031834;28;20452;-52
2021/07/07 04:34:23;;;;;;;5.50;2.73;;;17.30;99.90;;;;;;5031864;28;20479;-54
2021/07/07 04:36:53;;;;;;;3.27;2.80;;;17.30;99.90;;;;;;5031885;28;20448;-54
2021/07/07 04:39:20;;;;;;;3.63;2.90;;;17.30;99.90;;;;;;5031721;28;20519;-54
2021/07/07 04:41:47;;;;;;;3.10;2.80;;;17.30;99.90;;;;;;5032147;28;20506;-54
2021/07/07 04:44:14;;;;;;;3.27;2.93;;;17.40;99.90;;;;;;5031606;28;20449;-54
2021/07/07 04:46:42;;;;;;;2.53;2.27;;;17.40;99.90;;;;;;5031765;28;20514;-54
2021/07/07 04:49:11;;;;;;;2.40;2.20;;;17.30;99.90;;;;;;5030953;28;20469;-54
2021/07/07 04:51:41;;;;;;;5.00;2.50;;;17.20;99.90;;;;;;5031568;28;20453;-52
2021/07/07 04:54:09;;;;;;;2.70;2.50;;;17.10;99.90;;;;;;5032027;28;20441;-52
2021/07/07 04:56:36;;;;;;;2.47;2.27;;;17.20;99.90;;;;;;5012184;28;20457;-52
2021/07/07 04:59:03;;;;;;;4.20;2.30;;;17.30;99.90;;;;;;5011245;28;20508;-51
2021/07/07 05:01:31;;;;;;;3.50;2.00;;;17.20;99.90;;;;;;5018413;28;20454;-53
2021/07/07 05:03:58;;;;;;;4.40;1.57;;;17.30;99.90;;;;;;5012327;28;20504;-52
2021/07/07 05:06:28;;;;;;;1.70;1.60;;;17.20;99.90;;;;;;5031045;28;20485;-52
2021/07/07 05:08:55;;;;;;;1.57;1.47;;;17.20;99.90;;;;;;5031446;28;20556;-52
2021/07/07 05:11:23;;;;;;;2.20;1.97;;;17.20;99.90;;;;;;5019766;28;20608;-52
2021/07/07 05:13:50;;;;;;;1.43;1.33;;;17.20;99.90;;;;;;5011386;28;20449;-52
2021/07/07 05:16:17;;;;;;;1.60;1.50;;;17.20;99.90;;;;;;5011719;28;20531;-52
2021/07/07 05:18:44;;;;;;;1.70;1.60;;;17.20;99.90;;;;;;5029998;28;20468;-53
2021/07/07 05:21:12;;;;;;;1.50;1.40;;;17.20;99.90;;;;;;5030895;28;20457;-52
2021/07/07 05:23:40;;;;;;;2.13;1.20;;;17.30;99.90;;;;;;5030357;28;20551;-52
2021/07/07 05:26:07;;;;;;;2.23;1.50;;;17.30;99.90;;;;;;5031157;28;20488;-52
2021/07/07 05:28:34;;;;;;;2.27;1.30;;;17.40;99.90;;;;;;5029848;28;20472;-52
2021/07/07 05:31:05;;;;;;;4.63;1.30;;;17.40;99.90;;;;;;5030418;28;20506;-52
2021/07/07 05:33:35;;;;;;;1.10;1.00;;;17.40;99.90;;;;;;5030992;28;20453;-52
2021/07/07 05:36:02;;;;;;;2.58;1.20;;;17.40;99.90;;;;;;5022467;28;20464;-52
2021/07/07 05:38:31;;;;;;;1.20;1.00;;;17.50;99.90;;;;;;5027258;28;20640;-52
2021/07/07 05:40:59;;;;;;;1.60;1.20;;;17.50;99.90;;;;;;5029541;28;20448;-52
2021/07/07 05:43:27;;;;;;;3.43;1.43;;;17.50;99.90;;;;;;5030505;28;20465;-52
2021/07/07 05:45:54;;;;;;;3.10;1.20;;;17.50;99.90;;;;;;5024660;28;20472;-52
2021/07/07 05:48:21;;;;;;;1.67;1.23;;;17.40;99.90;;;;;;5029185;28;20942;-54
2021/07/07 05:50:48;;;;;;;1.50;1.40;;;17.40;99.90;;;;;;5024099;28;20478;-55
2021/07/07 05:53:15;;;;;;;1.70;1.60;;;17.40;99.90;;;;;;5016117;28;20464;-55
2021/07/07 05:55:42;;;;;;;1.10;1.03;;;17.50;99.90;;;;;;5027249;28;20883;-54
2021/07/07 05:58:11;;;;;;;1.20;1.10;;;17.50;99.90;;;;;;5030730;28;20491;-54
2021/07/07 06:00:39;;;;;;;1.30;1.20;;;17.50;99.90;;;;;;5030985;28;20448;-54
2021/07/07 06:03:06;;;;;;;1.00;1.00;;;17.40;99.90;;;;;;5029993;28;20950;-54
2021/07/07 06:05:33;;;;;;;0.87;0.87;;;17.40;99.90;;;;;;5019399;28;20914;-55
2021/07/07 06:08:00;;;;;;;1.10;1.00;;;17.30;99.90;;;;;;5022981;28;20484;-54
2021/07/07 06:10:28;;;;;;;1.90;1.20;;;17.40;99.90;;;;;;5032553;28;20457;-54
2021/07/07 06:12:55;;;;;;;1.10;0.90;;;17.30;99.90;;;;;;5034008;28;20471;-54
2021/07/07 06:15:25;;;;;;;1.17;1.00;;;17.30;99.90;;;;;;5034384;28;20448;-54
2021/07/07 06:17:53;;;;;;;1.20;1.00;;;17.30;99.90;;;;;;5034469;28;20476;-54
2021/07/07 06:20:20;;;;;;;1.77;1.00;;;17.40;99.90;;;;;;5033830;28;20456;-54
2021/07/07 06:22:47;;;;;;;1.20;1.10;;;17.40;99.90;;;;;;5034023;28;20453;-54
2021/07/07 06:25:18;;;;;;;1.70;1.20;;;17.40;99.90;;;;;;5034253;28;20456;-55
2021/07/07 06:27:45;;;;;;;2.10;1.20;;;17.40;99.90;;;;;;5032315;28;20445;-55
2021/07/07 06:30:14;;;;;;;2.17;1.50;;;17.40;99.90;;;;;;5030943;28;20458;-54
2021/07/07 06:32:44;;;;;;;2.80;1.10;;;17.50;99.90;;;;;;5014089;28;20445;-54
2021/07/07 06:35:11;;;;;;;1.63;1.30;;;17.50;99.90;;;;;;5025434;28;20464;-54
2021/07/07 06:37:38;;;;;;;1.93;1.20;;;17.40;99.90;;;;;;5032198;28;20468;-54
2021/07/07 06:40:08;;;;;;;2.40;1.40;;;17.40;99.90;;;;;;5033524;28;20452;-54
2021/07/07 06:42:38;;;;;;;2.30;1.93;;;17.40;99.90;;;;;;5033596;28;20448;-54
2021/07/07 06:45:06;;;;;;;2.17;1.97;;;17.50;99.90;;;;;;5032805;28;20456;-54
2021/07/07 06:47:34;;;;;;;4.40;2.17;;;17.40;99.90;;;;;;5034148;28;20492;-54
2021/07/07 06:50:02;;;;;;;1.47;1.37;;;17.40;99.90;;;;;;5033342;28;20452;-54
2021/07/07 06:52:29;;;;;;;3.03;1.80;;;17.50;99.90;;;;;;5017544;28;21008;-54
2021/07/07 06:54:56;;;;;;;2.20;2.00;;;17.60;99.90;;;;;;5032738;28;20456;-53
2021/07/07 06:57:23;;;;;;;1.83;1.73;;;17.50;99.90;;;;;;5033453;28;20448;-54
2021/07/07 06:59:50;;;;;;;1.87;1.70;;;17.50;99.90;;;;;;5033581;28;20480;-54
2021/07/07 07:02:17;;;;;;;2.47;1.80;;;17.60;99.90;;;;;;5033278;28;20507;-54
2021/07/07 07:04:44;;;;;;;2.33;2.13;;;17.60;99.90;;;;;;5033141;28;20452;-54
2021/07/07 07:07:13;;;;;;;2.03;1.90;;;17.60;99.90;;;;;;5032833;28;20480;-54
2021/07/07 07:09:40;;;;;;;2.57;2.27;;;17.60;99.90;;;;;;5033495;28;20465;-54
2021/07/07 07:12:07;;;;;;;2.67;2.07;;;17.70;99.90;;;;;;5032403;28;20498;-54
2021/07/07 07:14:34;;;;;;;1.90;1.80;;;17.80;99.90;;;;;;5032298;28;20958;-54
2021/07/07 07:17:01;;;;;;;2.93;2.00;;;17.70;99.90;;;;;;5033184;28;20448;-54
2021/07/07 07:19:28;;;;;;;2.73;2.00;;;17.80;99.90;;;;;;5033148;28;20484;-55
2021/07/07 07:21:55;;;;;;;2.20;2.00;;;17.80;99.90;;;;;;5032197;28;20946;-54
2021/07/07 07:24:30;;;;;;;1.63;1.53;;;17.80;99.90;;;;;;5032732;28;20522;-54
2021/07/07 07:26:57;;;;;;;1.97;1.73;;;17.90;99.90;;;;;;5033297;28;20490;-54
2021/07/07 07:29:24;;;;;;;4.80;1.67;;;17.80;99.90;;;;;;5032932;28;20472;-54
2021/07/07 07:31:51;;;;;;;2.00;1.50;;;17.80;99.90;;;;;;5031581;28;20456;-54
2021/07/07 07:34:18;;;;;;;1.70;1.60;;;17.80;99.90;;;;;;5032552;28;20456;-54
2021/07/07 07:36:46;;;;;;;1.87;1.70;;;17.60;99.90;;;;;;5032592;28;20602;-55
2021/07/07 07:39:19;;;;;;;2.70;1.90;;;17.60;99.90;;;;;;5032579;28;20468;-54
2021/07/07 07:41:47;;;;;;;1.73;1.50;;;17.70;99.90;;;;;;5026939;28;20607;-54
2021/07/07 07:44:14;;;;;;;1.40;1.30;;;17.70;99.90;;;;;;5031855;28;20455;-54
2021/07/07 07:46:42;;;;;;;1.03;0.93;;;17.70;99.90;;;;;;5032500;28;20487;-56
2021/07/07 07:49:11;;;;;;;2.70;1.50;;;17.80;99.90;;;;;;5032269;28;20480;-54
2021/07/07 07:51:38;;;;;;;1.50;1.30;;;17.80;99.90;;;;;;5032679;28;20510;-54
2021/07/07 07:54:05;;;;;;;1.30;1.20;;;17.80;99.90;;;;;;5032204;28;20934;-54
2021/07/07 07:56:32;;;;;;;1.70;1.60;;;17.80;99.90;;;;;;5032101;28;20449;-54
2021/07/07 07:59:01;;;;;;;4.20;1.17;;;17.70;99.90;;;;;;5031548;28;20476;-54
2021/07/07 08:01:28;;;;;;;1.43;1.33;;;17.70;99.90;;;;;;5023086;28;20453;-54
2021/07/07 08:03:54;;;;;;;1.20;1.10;;;17.60;99.90;;;;;;5012288;28;20452;-54
2021/07/07 08:06:21;;;;;;;3.10;1.30;;;17.60;99.90;;;;;;5012056;28;20512;-54
2021/07/07 08:08:48;;;;;;;1.40;1.30;;;17.70;99.90;;;;;;5027879;28;20479;-54
2021/07/07 08:11:15;;;;;;;1.10;1.10;;;17.70;99.90;;;;;;5031652;28;21008;-54
2021/07/07 08:13:43;;;;;;;2.50;1.30;;;17.70;99.90;;;;;;5028056;28;20468;-54
2021/07/07 08:16:11;;;;;;;3.70;1.07;;;17.80;99.90;;;;;;5025020;28;20464;-54
2021/07/07 08:18:38;;;;;;;1.53;1.30;;;17.80;99.90;;;;;;5028139;28;21018;-54
2021/07/07 08:21:05;;;;;;;1.80;1.20;;;17.90;99.90;;;;;;5028302;28;20476;-54
2021/07/07 08:23:32;;;;;;;4.60;1.37;;;17.90;99.90;;;;;;5030163;28;20558;-54
2021/07/07 08:25:59;;;;;;;1.50;1.37;;;17.80;99.90;;;;;;5030865;28;20529;-54
2021/07/07 08:28:26;;;;;;;2.20;1.90;;;17.60;99.90;;;;;;5030843;28;20507;-53
2021/07/07 08:30:54;;;;;;;1.87;1.40;;;17.70;99.90;;;;;;5026032;28;20468;-54
2021/07/07 08:33:22;;;;;;;2.40;2.20;;;17.70;99.90;;;;;;5040404;28;20840;-54
2021/07/07 08:35:49;;;;;;;6.93;2.60;;;17.60;99.90;;;;;;5011394;28;20495;-54
2021/07/07 08:38:16;;;;;;;2.97;2.40;;;17.60;99.90;;;;;;5012118;28;20474;-54
2021/07/07 08:40:43;;;;;;;2.30;2.10;;;17.60;99.90;;;;;;5027140;28;20475;-54
2021/07/07 08:43:10;;;;;;;2.47;2.27;;;17.60;99.90;;;;;;5030626;28;20456;-53
2021/07/07 08:45:38;;;;;;;3.07;2.03;;;17.90;99.90;;;;;;5028212;28;20460;-54
2021/07/07 08:48:05;;;;;;;2.90;2.27;;;17.80;99.90;;;;;;5031416;28;20592;-54
2021/07/07 08:50:35;;;;;;;3.17;2.80;;;17.80;99.90;;;;;;5032025;28;20472;-54
2021/07/07 08:53:04;;;;;;;3.67;3.37;;;17.80;99.90;;;;;;5031711;28;20551;-54
2021/07/07 08:55:32;;;;;;;5.20;3.33;;;17.90;99.90;;;;;;5031433;28;20949;-54
2021/07/07 08:57:59;;;;;;;3.50;3.20;;;17.90;99.90;;;;;;5030754;28;20567;-54
2021/07/07 09:00:31;;;;;;;3.50;3.17;;;17.90;99.90;;;;;;5031378;28;20455;-54
2021/07/07 09:03:00;;;;;;;3.90;3.40;;;18.00;99.90;;;;;;5030585;28;20456;-53
2021/07/07 09:05:29;;;;;;;3.77;3.27;;;17.90;99.90;;;;;;5031640;28;20444;-54
2021/07/07 09:08:05;;;;;;;3.70;2.83;;;17.90;99.90;;;;;;5031357;28;20615;-54
2021/07/07 09:10:33;;;;;;;3.60;2.80;;;17.90;99.90;;;;;;5030975;28;20459;-54
2021/07/07 09:13:10;;;;;;;3.40;3.10;;;18.00;99.90;;;;;;5031392;28;20522;-54
2021/07/07 09:15:38;;;;;;;4.63;3.77;;;18.10;99.90;;;;;;5030909;28;20484;-55
2021/07/07 09:18:05;;;;;;;7.30;4.50;;;18.10;99.90;;;;;;5031309;28;20499;-54
2021/07/07 09:20:37;;;;;;;5.00;4.50;;;18.10;99.90;;;;;;5030734;28;20467;-54
2021/07/07 09:23:24;;;;;;;6.37;4.70;;;18.20;99.90;;;;;;5031089;28;20468;-54
2021/07/07 09:25:54;;;;;;;7.17;5.20;;;17.80;99.90;;;;;;5030367;28;20890;-53
2021/07/07 09:28:23;;;;;;;8.90;5.30;;;17.70;99.90;;;;;;5030990;28;20518;-54
2021/07/07 09:30:51;;;;;;;6.43;5.20;;;17.80;99.90;;;;;;5030960;28;20481;-53
2021/07/07 09:33:19;;;;;;;4.90;4.23;;;17.90;99.90;;;;;;5031129;28;20457;-54
2021/07/07 09:35:46;;;;;;;4.50;4.10;;;17.90;99.90;;;;;;5031126;28;20452;-54
2021/07/07 09:38:13;;;;;;;6.33;4.73;;;18.00;99.90;;;;;;5029822;28;20464;-54
2021/07/07 09:40:45;;;;;;;7.90;5.13;;;18.00;99.90;;;;;;5023283;28;20865;-54
2021/07/07 09:43:13;;;;;;;6.57;4.90;;;18.00;99.90;;;;;;5017460;28;20456;-54
2021/07/07 09:45:45;;;;;;;8.37;5.20;;;18.10;99.90;;;;;;5033470;28;20838;-54
2021/07/07 09:48:14;;;;;;;6.50;4.80;;;18.10;99.90;;;;;;5034648;28;20496;-54
2021/07/07 09:50:46;;;;;;;7.63;4.80;;;18.10;99.90;;;;;;5034524;28;20463;-54
2021/07/07 09:53:14;;;;;;;4.43;4.03;;;17.90;99.90;;;;;;5015334;28;20453;-54
2021/07/07 09:55:42;;;;;;;5.37;4.73;;;18.00;99.90;;;;;;5030247;28;20880;-54
2021/07/07 09:58:10;;;;;;;5.40;4.00;;;18.00;99.90;;;;;;5057958;22;20530;-50
2021/07/07 10:00:40;;;;;;;4.20;3.80;;;18.00;99.90;;;;;;4995836;28;20465;-51
2021/07/07 10:03:08;;;;;;;21.10;12.87;;;18.00;99.90;;;;;;4994956;28;20933;-50
2021/07/07 10:05:40;;;;;;;16.83;9.50;;;17.90;99.90;;;;;;4995195;28;20508;-51
2021/07/07 10:08:09;;;;;;;8.77;6.80;;;17.90;99.90;;;;;;4995160;28;20482;-51
2021/07/07 10:10:37;;;;;;;7.83;5.57;;;18.00;99.90;;;;;;4995764;28;20458;-51
2021/07/07 10:13:06;;;;;;;5.20;4.23;;;18.00;99.90;;;;;;4995684;28;20453;-51
2021/07/07 10:15:34;;;;;;;3.90;3.50;;;18.10;99.90;;;;;;4995370;28;20454;-51
2021/07/07 10:18:03;;;;;;;3.53;3.00;;;18.10;99.90;;;;;;4995615;28;20442;-51
2021/07/07 10:20:30;;;;;;;5.60;3.20;;;17.90;99.90;;;;;;4995331;28;20541;-50
2021/07/07 10:22:58;;;;;;;5.97;3.23;;;17.80;99.90;;;;;;4995279;28;20454;-51
2021/07/07 10:25:28;;;;;;;3.33;2.90;;;17.90;99.90;;;;;;4995122;28;20512;-50
2021/07/07 10:27:58;;;;;;;6.50;2.77;;;18.00;99.90;;;;;;4996176;28;20486;-51
2021/07/07 10:30:51;;;;;;;3.50;2.43;;;18.00;99.90;;;;;;4995457;28;20528;-50
2021/07/07 10:33:19;;;;;;;5.47;3.27;;;18.10;99.90;;;;;;4995148;28;20454;-50
2021/07/07 10:35:47;;;;;;;6.73;3.67;;;18.00;99.90;;;;;;4994326;28;20457;-50
2021/07/07 10:38:15;;;;;;;4.97;2.87;;;18.00;99.90;;;;;;4995047;28;20454;-51
2021/07/07 10:40:48;;;;;;;4.60;2.47;;;18.10;99.90;;;;;;4995382;28;20508;-51
2021/07/07 10:43:42;;;;;;;3.33;3.00;;;18.10;99.90;;;;;;4994946;28;20936;-51
2021/07/07 10:46:11;;;;;;;3.50;2.30;;;18.10;99.90;;;;;;4994043;28;20481;-51
2021/07/07 10:48:38;;;;;;;3.23;1.60;;;18.10;99.90;;;;;;4994871;28;20486;-51
2021/07/07 10:51:27;;;;;;;2.47;2.10;;;18.10;99.90;;;;;;4995159;28;20450;-51
2021/07/07 10:53:55;;;;;;;2.20;2.00;;;18.20;99.90;;;;;;4994568;28;20446;-51
2021/07/07 10:56:44;;;;;;;3.17;2.03;;;18.20;99.90;;;;;;4993569;28;20446;-51
2021/07/07 10:59:29;;;;;;;4.63;2.37;;;18.20;99.90;;;;;;4994487;28;20565;-50
2021/07/07 11:02:06;;;;;;;2.90;2.30;;;18.20;99.90;;;;;;4994559;28;20978;-50
2021/07/07 11:04:37;;;;;;;2.90;2.57;;;18.20;99.90;;;;;;4994599;28;20466;-51
2021/07/07 11:07:26;;;;;;;4.13;2.90;;;18.30;99.90;;;;;;4994110;28;20999;-51
2021/07/07 11:09:53;;;;;;;3.07;2.77;;;18.30;99.90;;;;;;4994712;28;20478;-51
2021/07/07 11:12:21;;;;;;;3.00;2.70;;;18.30;99.90;;;;;;4993864;28;20451;-51
2021/07/07 11:15:03;;;;;;;2.57;2.37;;;18.30;99.90;;;;;;4994648;28;20544;-51
2021/07/07 11:17:36;;;;;;;3.47;2.27;;;18.40;99.90;;;;;;4994142;28;20537;-51
2021/07/07 11:20:06;;;;;;;2.80;2.60;;;18.40;99.90;;;;;;4993866;28;20609;-51
2021/07/07 11:22:35;;;;;;;3.57;2.70;;;18.30;99.90;;;;;;4994077;28;20458;-51
2021/07/07 11:25:04;;;;;;;5.53;2.73;;;18.30;99.90;;;;;;4994368;28;20516;-51
2021/07/07 11:27:33;;;;;;;2.87;2.50;;;18.30;99.90;;;;;;4994431;28;20548;-50
2021/07/07 11:30:00;;;;;;;4.50;2.57;;;18.30;99.90;;;;;;4993968;28;20568;-51
2021/07/07 11:32:30;;;;;;;5.20;2.50;;;18.30;99.90;;;;;;4994010;28;20533;-51
2021/07/07 11:35:00;;;;;;;2.93;2.73;;;18.30;99.90;;;;;;4994331;28;20457;-50
2021/07/07 11:37:28;;;;;;;3.07;2.77;;;18.30;99.90;;;;;;4994170;28;20509;-51
2021/07/07 11:40:04;;;;;;;3.77;3.37;;;18.30;99.90;;;;;;4993723;28;20562;-51
2021/07/07 11:42:31;;;;;;;2.90;2.70;;;18.30;99.90;;;;;;4993331;28;20466;-51
2021/07/07 11:44:58;;;;;;;4.67;3.57;;;18.30;99.90;;;;;;4993760;28;20537;-51
2021/07/07 11:47:30;;;;;;;4.23;3.80;;;18.30;99.90;;;;;;4993147;28;20910;-51
2021/07/07 11:50:09;;;;;;;4.77;3.57;;;18.30;99.90;;;;;;4992719;28;20474;-50
2021/07/07 11:52:52;;;;;;;3.53;3.20;;;18.30;99.90;;;;;;4993590;28;20454;-51
2021/07/07 11:55:19;;;;;;;3.43;2.60;;;18.40;99.90;;;;;;4994277;28;20454;-50
2021/07/07 11:57:46;;;;;;;3.10;2.80;;;18.40;99.90;;;;;;4993971;28;20449;-51
2021/07/07 12:00:13;;;;;;;3.57;3.10;;;18.30;99.90;;;;;;4993663;28;20532;-50
2021/07/07 12:02:41;;;;;;;3.30;3.10;;;18.30;99.90;;;;;;4993114;28;20458;-51
2021/07/07 12:05:11;;;;;;;2.67;2.47;;;18.20;99.90;;;;;;4993154;28;21121;-51
2021/07/07 12:07:39;;;;;;;4.27;2.97;;;18.20;99.90;;;;;;4993034;28;20564;-51
2021/07/07 12:10:27;;;;;;;3.47;3.10;;;18.20;99.90;;;;;;4993633;28;20482;-51
2021/07/07 12:12:54;;;;;;;6.53;3.30;;;18.20;99.90;;;;;;4993286;28;20540;-51
2021/07/07 12:15:24;;;;;;;3.50;3.20;;;18.20;99.90;;;;;;4993088;28;20455;-50
2021/07/07 12:17:51;;;;;;;3.53;3.20;;;18.20;99.90;;;;;;4993295;28;20477;-51
2021/07/07 12:20:20;;;;;;;3.40;2.90;;;18.30;99.90;;;;;;4992953;28;20849;-51
2021/07/07 12:23:01;;;;;;;3.40;2.67;;;18.40;99.90;;;;;;4993007;28;20524;-50
2021/07/07 12:25:29;;;;;;;2.77;2.17;;;18.60;99.90;;;;;;4992814;28;20485;-51
2021/07/07 12:27:56;;;;;;;4.57;3.90;;;18.70;99.90;;;;;;4992972;28;20484;-50
2021/07/07 12:30:23;;;;;;;3.77;2.43;;;18.70;99.90;;;;;;4993014;28;20521;-51
2021/07/07 12:32:50;;;;;;;5.17;2.97;;;18.70;99.90;;;;;;4993314;28;20458;-51
2021/07/07 12:35:19;;;;;;;2.87;2.67;;;18.80;99.90;;;;;;4992775;28;20518;-50
2021/07/07 12:37:46;;;;;;;3.47;2.50;;;18.90;99.90;;;;;;4992614;28;20450;-50
2021/07/07 12:40:16;;;;;;;3.37;3.03;;;19.10;99.90;;;;;;4992376;28;20470;-51
2021/07/07 12:42:44;;;;;;;3.37;2.87;;;19.10;99.90;;;;;;4992976;28;20928;-51
2021/07/07 12:45:15;;;;;;;3.73;3.20;;;19.10;99.90;;;;;;4993168;28;20501;-51
2021/07/07 12:47:43;;;;;;;3.20;2.90;;;19.10;99.90;;;;;;4993391;28;20508;-51
2021/07/07 12:50:20;;;;;;;3.77;3.03;;;19.10;99.90;;;;;;4993130;28;21071;-51
2021/07/07 12:52:48;;;;;;;3.57;3.27;;;19.20;99.90;;;;;;4992877;28;20450;-51